Maldives Meteorological Service

TAFS

Station TAF
VRMM
VRMM 221100Z 2212/2318 08013KT 9999 FEW018 TEMPO 2215/2221 FEW018CB=
VRMH
VRMH 221100Z 2212/2318 05008KT 9999 FEW019 TEMPO 2213/2219 FEW019CB=
VRMK
VRMK 221100Z 2212/2312 05007KT 9999 FEW018TCU TEMPO 2212/2218 FEW018CB=
VRMT
VRMT 221100Z 2212/2312 11007KT 9999 FEW018TCU TEMPO 2213/2219 FEW018CB=
VRMG
VRMG 221100Z 2212/2318 09007KT 9999 FEW018TCU TEMPO 2212/2218 FEW018CB=